Time;durP1;ratioP1;P1;durP2;ratioP2;P2;SDS_P1;SDS_P2;PMS_P1;PMS_P2;Temp;Humidity;BMP_temperature;BMP_pressure;BME280_temperature;BME280_humidity;BME280_pressure;Samples;Min_cycle;Max_cycle;Signal;HPM_P1;HPM_P2
2021/03/11 00:00:28;;;;;;;13.55;9.38;;;11.60;57.50;;;;;;2072301;28;20038;-59
2021/03/11 00:01:50;;;;;;;15.25;9.20;;;11.60;57.50;;;;;;2062381;28;20089;-59
2021/03/11 00:03:12;;;;;;;14.07;9.52;;;11.60;57.50;;;;;;2065533;28;20042;-59
2021/03/11 00:04:33;;;;;;;13.25;9.23;;;11.70;57.60;;;;;;2070817;28;20484;-59
2021/03/11 00:05:54;;;;;;;12.23;9.48;;;11.70;57.70;;;;;;2070489;28;20400;-59
2021/03/11 00:07:15;;;;;;;15.63;10.05;;;11.60;57.60;;;;;;2068322;28;20089;-60
2021/03/11 00:08:36;;;;;;;15.93;10.48;;;11.70;57.80;;;;;;2070685;28;20097;-60
2021/03/11 00:09:57;;;;;;;13.90;9.82;;;11.60;57.90;;;;;;2070537;28;20068;-60
2021/03/11 00:11:18;;;;;;;13.30;9.15;;;11.60;57.90;;;;;;2069714;28;20041;-60
2021/03/11 00:12:42;;;;;;;12.43;9.02;;;11.60;57.90;;;;;;2072082;28;20036;-60
2021/03/11 00:14:03;;;;;;;14.77;10.27;;;11.60;58.00;;;;;;2065826;28;20045;-61
2021/03/11 00:15:24;;;;;;;12.35;8.73;;;11.60;57.90;;;;;;2069053;28;20110;-60
2021/03/11 00:16:45;;;;;;;11.35;9.02;;;11.60;57.90;;;;;;2071036;28;20021;-60
2021/03/11 00:18:08;;;;;;;13.35;9.57;;;11.60;57.80;;;;;;2071473;28;20726;-60
2021/03/11 00:19:29;;;;;;;13.85;9.30;;;11.60;57.90;;;;;;2071038;28;20796;-60
2021/03/11 00:20:50;;;;;;;12.18;8.98;;;11.60;57.80;;;;;;2070678;28;20385;-60
2021/03/11 00:22:11;;;;;;;13.13;9.75;;;11.50;57.70;;;;;;2069383;28;20384;-61
2021/03/11 00:23:33;;;;;;;10.40;8.10;;;11.60;57.80;;;;;;2071087;28;20684;-61
2021/03/11 00:24:53;;;;;;;10.63;8.35;;;11.50;57.70;;;;;;2069378;28;20126;-61
2021/03/11 00:26:14;;;;;;;11.85;9.02;;;11.50;57.80;;;;;;2058270;28;20378;-61
2021/03/11 00:27:35;;;;;;;13.00;8.45;;;11.50;57.80;;;;;;2065122;28;20097;-60
2021/03/11 00:28:56;;;;;;;12.93;8.93;;;11.50;57.80;;;;;;2069708;28;20049;-59
2021/03/11 00:30:20;;;;;;;12.38;8.70;;;11.50;57.90;;;;;;2068000;28;20702;-59
2021/03/11 00:31:41;;;;;;;12.00;8.57;;;11.60;58.00;;;;;;2071013;28;20069;-60
2021/03/11 00:33:02;;;;;;;12.98;8.65;;;11.60;58.00;;;;;;2072772;28;20042;-60
2021/03/11 00:34:23;;;;;;;12.48;8.55;;;11.60;58.00;;;;;;2068106;28;20103;-59
2021/03/11 00:35:44;;;;;;;11.90;8.15;;;11.60;58.00;;;;;;2061612;28;20088;-59
2021/03/11 00:37:05;;;;;;;12.02;8.57;;;11.60;58.10;;;;;;2068988;28;20034;-61
2021/03/11 00:38:25;;;;;;;11.10;8.23;;;11.60;58.00;;;;;;2067653;28;20108;-61
2021/03/11 00:39:46;;;;;;;13.35;8.80;;;11.60;58.00;;;;;;2064563;28;20042;-59
2021/03/11 00:41:07;;;;;;;14.55;9.65;;;11.70;58.20;;;;;;2069958;28;20042;-61
2021/03/11 00:42:28;;;;;;;12.38;8.70;;;11.70;58.20;;;;;;2071024;28;20444;-59
2021/03/11 00:43:49;;;;;;;9.38;7.72;;;11.70;58.30;;;;;;2069443;28;20062;-60
2021/03/11 00:45:11;;;;;;;11.38;8.32;;;11.70;58.20;;;;;;2072148;28;20045;-60
2021/03/11 00:46:32;;;;;;;12.40;8.25;;;11.70;58.30;;;;;;2073768;28;20025;-59
2021/03/11 00:47:53;;;;;;;10.43;7.70;;;11.70;58.20;;;;;;2072908;28;20049;-59
2021/03/11 00:49:14;;;;;;;15.20;8.82;;;11.70;58.20;;;;;;2067798;28;20065;-60
2021/03/11 00:50:35;;;;;;;11.75;7.72;;;11.70;58.30;;;;;;2069363;28;20046;-59
2021/03/11 00:51:55;;;;;;;9.82;7.53;;;11.70;58.30;;;;;;2073274;28;20038;-60
2021/03/11 00:53:16;;;;;;;11.63;8.40;;;11.70;58.40;;;;;;2061354;28;20076;-60
2021/03/11 00:54:37;;;;;;;11.45;8.20;;;11.70;58.40;;;;;;2069599;28;20113;-60
2021/03/11 00:55:58;;;;;;;12.38;8.63;;;11.70;58.30;;;;;;2073754;28;20026;-60
2021/03/11 00:57:19;;;;;;;10.88;8.05;;;11.70;58.30;;;;;;2068780;28;20045;-61
2021/03/11 00:58:40;;;;;;;12.88;8.52;;;11.70;58.30;;;;;;2071764;28;20373;-59
2021/03/11 01:00:06;;;;;;;10.60;7.82;;;11.70;58.40;;;;;;2073054;28;20034;-60
2021/03/11 01:01:27;;;;;;;10.25;8.10;;;11.70;58.40;;;;;;2070259;28;20465;-59
2021/03/11 01:02:48;;;;;;;10.30;7.55;;;11.70;58.40;;;;;;2073201;28;20041;-60
2021/03/11 01:04:09;;;;;;;11.45;7.63;;;11.70;58.40;;;;;;2073275;28;20045;-60
2021/03/11 01:05:31;;;;;;;11.93;8.38;;;11.70;58.40;;;;;;2072002;28;20038;-60
2021/03/11 01:06:52;;;;;;;12.55;8.43;;;11.70;58.40;;;;;;2070533;28;20044;-60
2021/03/11 01:08:14;;;;;;;11.48;8.10;;;11.70;58.40;;;;;;2067336;28;20409;-60
2021/03/11 01:09:35;;;;;;;10.55;7.43;;;11.70;58.50;;;;;;2069891;28;20105;-59
2021/03/11 01:10:56;;;;;;;9.70;7.38;;;11.70;58.40;;;;;;2071548;28;20034;-60
2021/03/11 01:12:17;;;;;;;10.30;8.13;;;11.70;58.40;;;;;;2068240;28;20044;-60
2021/03/11 01:13:38;;;;;;;11.48;7.30;;;11.80;58.50;;;;;;2073018;28;20125;-60
2021/03/11 01:14:59;;;;;;;9.98;7.00;;;11.70;58.50;;;;;;2072187;28;20042;-59
2021/03/11 01:16:19;;;;;;;9.13;7.32;;;11.70;58.40;;;;;;2069285;28;20751;-59
2021/03/11 01:17:41;;;;;;;10.48;7.65;;;11.70;58.40;;;;;;2070020;28;20030;-59
2021/03/11 01:19:02;;;;;;;10.60;7.15;;;11.70;58.60;;;;;;2065227;28;20048;-61
2021/03/11 01:20:23;;;;;;;9.60;7.07;;;11.70;58.50;;;;;;2065152;28;20444;-59
2021/03/11 01:21:44;;;;;;;10.40;7.20;;;11.80;58.50;;;;;;2071622;28;20045;-60
2021/03/11 01:23:05;;;;;;;9.07;6.50;;;11.70;58.50;;;;;;2066379;28;20113;-61
2021/03/11 01:24:26;;;;;;;8.70;6.57;;;11.70;58.40;;;;;;2072493;28;20434;-60
2021/03/11 01:25:47;;;;;;;10.50;6.95;;;11.80;58.50;;;;;;2071945;28;20685;-60
2021/03/11 01:27:08;;;;;;;8.75;6.28;;;11.80;58.50;;;;;;2066012;28;20418;-60
2021/03/11 01:28:29;;;;;;;9.88;6.60;;;11.80;58.40;;;;;;2070264;28;20121;-60
2021/03/11 01:29:50;;;;;;;8.73;6.60;;;11.80;58.50;;;;;;2072423;28;20630;-60
2021/03/11 01:31:10;;;;;;;7.40;5.88;;;11.80;58.40;;;;;;2067178;28;20101;-60
2021/03/11 01:32:31;;;;;;;8.45;6.00;;;11.80;58.50;;;;;;2072966;28;20014;-59
2021/03/11 01:33:52;;;;;;;6.72;5.68;;;11.80;58.40;;;;;;2073131;28;20026;-59
2021/03/11 01:35:13;;;;;;;7.63;5.90;;;11.80;58.50;;;;;;2069868;28;20029;-61
2021/03/11 01:36:34;;;;;;;6.85;5.50;;;11.80;58.50;;;;;;2070526;28;20373;-60
2021/03/11 01:37:55;;;;;;;7.47;5.93;;;11.80;58.40;;;;;;2067392;28;20121;-60
2021/03/11 01:39:16;;;;;;;7.35;5.65;;;11.80;58.50;;;;;;2069260;28;20042;-60
2021/03/11 01:40:37;;;;;;;7.15;5.57;;;11.80;58.50;;;;;;2073114;28;20461;-61
2021/03/11 01:41:58;;;;;;;9.23;5.80;;;11.90;58.50;;;;;;2068111;28;20034;-60
2021/03/11 01:43:19;;;;;;;8.05;5.82;;;11.90;58.60;;;;;;2067796;28;20044;-60
2021/03/11 01:44:40;;;;;;;7.55;5.40;;;11.90;58.40;;;;;;2072816;28;20029;-60
2021/03/11 01:46:01;;;;;;;6.38;5.25;;;11.90;58.40;;;;;;2072981;28;20058;-61
2021/03/11 01:47:22;;;;;;;6.65;5.30;;;11.90;58.40;;;;;;2070850;28;20440;-59
2021/03/11 01:48:43;;;;;;;8.15;6.10;;;11.90;58.90;;;;;;2071699;28;20033;-60
2021/03/11 01:50:05;;;;;;;6.65;5.55;;;11.90;58.40;;;;;;2069660;28;20026;-60
2021/03/11 01:51:29;;;;;;;6.25;4.88;;;12.00;58.50;;;;;;2068603;28;20397;-59
2021/03/11 01:52:50;;;;;;;7.70;5.68;;;11.90;58.40;;;;;;2071463;28;20342;-59
2021/03/11 01:54:11;;;;;;;5.15;4.65;;;12.00;58.40;;;;;;2073665;28;20033;-59
2021/03/11 01:55:33;;;;;;;6.22;5.63;;;12.00;58.40;;;;;;2072922;28;20087;-59
2021/03/11 01:56:54;;;;;;;6.82;5.28;;;11.90;58.40;;;;;;2068638;28;20373;-60
2021/03/11 01:58:15;;;;;;;7.93;5.50;;;12.00;58.50;;;;;;2066622;28;20034;-59
2021/03/11 01:59:37;;;;;;;6.38;5.00;;;12.00;58.40;;;;;;2071005;28;20416;-59
2021/03/11 02:00:58;;;;;;;6.22;5.18;;;12.00;58.50;;;;;;2073236;28;20393;-59
2021/03/11 02:02:19;;;;;;;6.18;5.22;;;12.00;58.40;;;;;;2069522;28;20026;-60
2021/03/11 02:03:41;;;;;;;7.05;4.85;;;12.00;58.40;;;;;;2073498;28;20370;-59
2021/03/11 02:05:05;;;;;;;6.47;4.97;;;12.00;58.50;;;;;;2056977;28;20042;-60
2021/03/11 02:06:26;;;;;;;6.45;4.88;;;12.00;58.50;;;;;;2067946;28;20357;-59
2021/03/11 02:07:47;;;;;;;5.20;4.68;;;12.00;58.40;;;;;;2068603;28;20042;-61
2021/03/11 02:09:08;;;;;;;5.97;5.15;;;12.00;58.40;;;;;;2064505;28;20397;-60
2021/03/11 02:10:28;;;;;;;6.20;4.72;;;12.00;58.40;;;;;;2072508;28;20042;-61
2021/03/11 02:12:08;;;;;;;4.65;4.00;;;12.00;58.50;;;;;;2072564;28;20041;-61
2021/03/11 02:13:49;;;;;;;5.97;4.47;;;12.00;58.70;;;;;;2067434;28;20030;-60
2021/03/11 02:15:25;;;;;;;6.15;4.57;;;12.00;58.50;;;;;;2069066;28;20279;-59
2021/03/11 02:17:00;;;;;;;4.43;3.92;;;12.10;58.50;;;;;;2071605;28;20424;-62
2021/03/11 02:18:40;;;;;;;4.78;4.28;;;12.10;58.50;;;;;;2072067;28;20038;-59
2021/03/11 02:20:07;;;;;;;4.35;3.90;;;12.10;58.50;;;;;;2072273;28;20126;-60
2021/03/11 02:21:34;;;;;;;4.47;3.95;;;12.10;58.30;;;;;;2061451;28;20030;-59
2021/03/11 02:23:15;;;;;;;5.15;4.10;;;12.10;58.50;;;;;;2070842;28;20025;-61
2021/03/11 02:25:15;;;;;;;4.40;3.85;;;12.10;58.40;;;;;;2070040;28;20034;-61
2021/03/11 02:26:59;;;;;;;4.63;3.92;;;12.10;58.70;;;;;;2070180;28;20036;-61
2021/03/11 02:28:23;;;;;;;4.35;3.75;;;12.10;58.50;;;;;;2067680;28;20133;-59
2021/03/11 02:29:46;;;;;;;6.68;4.40;;;12.10;58.40;;;;;;2071188;28;20026;-61
2021/03/11 02:31:07;;;;;;;5.38;3.70;;;12.10;58.30;;;;;;2065743;28;20030;-61
2021/03/11 02:32:30;;;;;;;4.32;3.92;;;12.10;58.30;;;;;;2070695;28;20022;-61
2021/03/11 02:33:53;;;;;;;4.53;3.83;;;12.10;58.40;;;;;;2072842;28;20025;-60
2021/03/11 02:35:15;;;;;;;4.93;3.97;;;12.20;58.40;;;;;;2065021;28;20030;-61
2021/03/11 02:36:37;;;;;;;4.05;3.53;;;12.10;58.40;;;;;;2071220;28;20025;-60
2021/03/11 02:37:59;;;;;;;4.63;3.72;;;12.10;58.40;;;;;;2073106;28;20130;-60
2021/03/11 02:39:24;;;;;;;5.05;3.78;;;12.20;58.50;;;;;;2068180;28;20034;-60
2021/03/11 02:40:46;;;;;;;4.20;3.80;;;12.20;58.50;;;;;;2072210;28;20353;-60
2021/03/11 02:42:08;;;;;;;4.43;3.67;;;12.20;58.40;;;;;;2069744;28;20042;-60
2021/03/11 02:43:29;;;;;;;4.03;3.63;;;12.20;58.50;;;;;;2070520;28;20117;-61
2021/03/11 02:44:51;;;;;;;3.70;3.30;;;12.20;58.40;;;;;;2071090;28;20033;-61
2021/03/11 02:46:14;;;;;;;3.33;3.03;;;12.20;58.40;;;;;;2068537;28;20038;-61
2021/03/11 02:47:36;;;;;;;4.75;3.65;;;12.20;58.40;;;;;;2069089;28;20022;-60
2021/03/11 02:48:58;;;;;;;4.15;3.60;;;12.20;58.40;;;;;;2071635;28;20092;-61
2021/03/11 02:50:19;;;;;;;3.45;2.85;;;12.20;58.50;;;;;;2066923;28;20072;-60
2021/03/11 02:51:40;;;;;;;4.40;3.75;;;12.30;58.50;;;;;;2071171;28;20061;-60
2021/03/11 02:53:05;;;;;;;3.95;3.53;;;12.20;58.40;;;;;;2073396;28;20030;-62
2021/03/11 02:54:27;;;;;;;3.95;3.60;;;12.20;58.50;;;;;;2068081;28;20487;-61
2021/03/11 02:55:49;;;;;;;2.88;2.67;;;12.30;58.50;;;;;;2071914;28;20600;-60
2021/03/11 02:57:12;;;;;;;4.18;3.78;;;12.30;58.40;;;;;;2071576;28;20540;-60
2021/03/11 02:58:33;;;;;;;3.80;3.40;;;12.30;58.50;;;;;;2069218;28;20045;-60
2021/03/11 02:59:56;;;;;;;3.88;3.08;;;12.30;58.50;;;;;;2068720;28;20557;-60
2021/03/11 03:01:18;;;;;;;3.47;3.17;;;12.30;58.50;;;;;;2071146;28;20369;-60
2021/03/11 03:02:43;;;;;;;3.15;2.95;;;12.30;58.50;;;;;;2072585;28;20046;-60
2021/03/11 03:04:05;;;;;;;3.20;2.90;;;12.30;58.60;;;;;;2071551;28;20025;-60
2021/03/11 03:05:29;;;;;;;3.85;3.45;;;12.30;58.50;;;;;;2062843;28;20042;-60
2021/03/11 03:06:50;;;;;;;3.10;2.80;;;12.30;58.60;;;;;;2067666;28;20465;-60
2021/03/11 03:08:15;;;;;;;2.90;2.70;;;12.30;58.60;;;;;;2071783;28;20026;-62
2021/03/11 03:09:38;;;;;;;3.35;3.00;;;12.30;58.50;;;;;;2072426;28;20373;-60
2021/03/11 03:10:59;;;;;;;7.50;3.60;;;12.30;58.60;;;;;;2072882;28;20056;-60
2021/03/11 03:12:21;;;;;;;4.07;3.55;;;12.30;58.70;;;;;;2068456;28;20026;-60
2021/03/11 03:13:43;;;;;;;3.47;3.17;;;12.30;58.90;;;;;;2068407;28;20413;-60
2021/03/11 03:15:07;;;;;;;3.70;3.40;;;12.30;58.70;;;;;;2064976;28;20038;-60
2021/03/11 03:16:28;;;;;;;4.15;3.75;;;12.30;58.80;;;;;;2068892;28;20167;-60
2021/03/11 03:17:51;;;;;;;3.88;3.15;;;12.30;58.90;;;;;;2059131;28;20031;-59
2021/03/11 03:19:13;;;;;;;3.95;3.53;;;12.30;59.00;;;;;;2064707;28;20450;-59
2021/03/11 03:20:34;;;;;;;3.55;3.25;;;12.40;59.10;;;;;;2071312;28;20044;-59
2021/03/11 03:21:55;;;;;;;3.45;3.15;;;12.40;59.10;;;;;;2070011;28;20037;-59
2021/03/11 03:23:18;;;;;;;4.00;3.42;;;12.30;59.00;;;;;;2057818;28;20023;-59
2021/03/11 03:24:40;;;;;;;4.35;3.70;;;12.40;59.40;;;;;;2068864;28;20045;-60
2021/03/11 03:26:01;;;;;;;3.78;3.42;;;12.40;59.50;;;;;;2064819;28;20042;-60
2021/03/11 03:27:22;;;;;;;3.90;3.50;;;12.40;59.40;;;;;;2069703;28;20038;-61
2021/03/11 03:28:44;;;;;;;4.32;3.92;;;12.40;59.50;;;;;;2069829;28;20137;-58
2021/03/11 03:30:13;;;;;;;3.47;3.10;;;12.40;59.60;;;;;;2064867;28;20035;-61
2021/03/11 03:31:34;;;;;;;4.32;3.50;;;12.30;59.60;;;;;;2071355;28;20057;-60
2021/03/11 03:32:56;;;;;;;4.22;3.83;;;12.40;59.70;;;;;;2071100;28;20412;-60
2021/03/11 03:34:16;;;;;;;4.45;3.67;;;12.30;59.50;;;;;;2072824;28;20618;-60
2021/03/11 03:35:38;;;;;;;3.60;3.30;;;12.40;59.60;;;;;;2068679;28;20101;-60
2021/03/11 03:36:59;;;;;;;4.57;3.83;;;12.40;59.80;;;;;;2071428;28;20029;-60
2021/03/11 03:38:20;;;;;;;4.40;4.00;;;12.30;59.70;;;;;;2072075;28;20274;-60
2021/03/11 03:39:41;;;;;;;4.38;3.80;;;12.30;59.70;;;;;;2072105;28;20030;-58
2021/03/11 03:41:02;;;;;;;4.72;4.22;;;12.30;59.70;;;;;;2071813;28;20091;-60
2021/03/11 03:42:26;;;;;;;5.47;4.40;;;12.40;59.90;;;;;;2068796;28;20065;-60
2021/03/11 03:43:50;;;;;;;6.03;4.85;;;12.40;60.20;;;;;;2063883;28;20022;-60
2021/03/11 03:45:14;;;;;;;4.28;3.88;;;12.40;60.60;;;;;;2063227;28;20117;-60
2021/03/11 03:46:35;;;;;;;5.05;3.67;;;12.40;60.50;;;;;;2071550;28;20440;-59
2021/03/11 03:47:59;;;;;;;5.25;4.20;;;12.40;60.20;;;;;;2072355;28;20065;-59
2021/03/11 03:49:21;;;;;;;5.40;4.22;;;12.30;60.20;;;;;;2067054;28;20126;-59
2021/03/11 03:50:46;;;;;;;6.10;4.50;;;12.30;60.50;;;;;;2068321;28;20111;-59
2021/03/11 03:52:09;;;;;;;4.93;4.45;;;12.30;60.60;;;;;;2069988;28;20073;-59
2021/03/11 03:53:37;;;;;;;5.15;4.10;;;12.30;60.60;;;;;;2072123;28;20028;-59
2021/03/11 03:54:58;;;;;;;6.00;4.90;;;12.30;60.60;;;;;;2070753;28;20030;-60
2021/03/11 03:56:34;;;;;;;4.57;4.18;;;12.30;60.60;;;;;;2067143;28;20037;-59
2021/03/11 03:57:56;;;;;;;4.63;3.92;;;12.30;60.80;;;;;;2068333;28;20038;-60
2021/03/11 03:59:23;;;;;;;6.30;4.88;;;12.30;60.70;;;;;;2070728;28;20034;-59
2021/03/11 04:00:44;;;;;;;5.97;4.30;;;12.30;61.00;;;;;;2069931;28;20026;-59
2021/03/11 04:02:06;;;;;;;5.28;4.55;;;12.30;60.60;;;;;;2071659;28;20044;-60
2021/03/11 04:03:28;;;;;;;6.25;4.45;;;12.30;60.90;;;;;;2071100;28;20483;-61
2021/03/11 04:04:52;;;;;;;4.53;4.13;;;12.30;60.80;;;;;;2068922;28;20037;-59
2021/03/11 04:06:14;;;;;;;4.78;4.10;;;12.30;60.70;;;;;;2066347;28;20042;-59
2021/03/11 04:07:35;;;;;;;5.25;4.70;;;12.30;60.80;;;;;;2068644;28;20397;-60
2021/03/11 04:08:57;;;;;;;5.03;4.53;;;12.30;60.90;;;;;;2071462;28;20038;-60
2021/03/11 04:10:18;;;;;;;7.10;4.65;;;12.30;61.10;;;;;;2066963;28;20065;-61
2021/03/11 04:11:42;;;;;;;4.55;4.13;;;12.30;61.00;;;;;;2071649;28;20057;-61
2021/03/11 04:13:03;;;;;;;4.32;3.92;;;12.30;61.00;;;;;;2068410;28;20068;-60
2021/03/11 04:14:27;;;;;;;4.50;4.00;;;12.30;60.90;;;;;;2068054;28;20355;-61
2021/03/11 04:15:49;;;;;;;5.95;4.78;;;12.30;60.90;;;;;;2072159;28;20026;-61
2021/03/11 04:17:11;;;;;;;4.80;4.00;;;12.40;61.10;;;;;;2073128;28;20108;-60
2021/03/11 04:18:32;;;;;;;5.20;4.50;;;12.30;60.80;;;;;;2069454;28;20061;-61
2021/03/11 04:19:54;;;;;;;5.68;4.55;;;12.40;61.00;;;;;;2069934;28;20538;-61
2021/03/11 04:21:15;;;;;;;5.28;4.30;;;12.40;61.10;;;;;;2070563;28;20028;-60
2021/03/11 04:22:38;;;;;;;4.88;3.83;;;12.40;60.90;;;;;;2071394;28;20041;-61
2021/03/11 04:24:00;;;;;;;4.25;3.55;;;12.40;60.90;;;;;;2069842;28;20034;-61
2021/03/11 04:25:21;;;;;;;5.45;4.15;;;12.40;61.00;;;;;;2066767;28;20092;-60
2021/03/11 04:26:43;;;;;;;4.78;4.13;;;12.40;61.10;;;;;;2070993;28;20150;-61
2021/03/11 04:28:04;;;;;;;4.63;4.13;;;12.40;61.10;;;;;;2071521;28;20072;-61
2021/03/11 04:29:25;;;;;;;5.03;3.83;;;12.50;61.10;;;;;;2072074;28;20582;-60
2021/03/11 04:30:46;;;;;;;4.50;4.10;;;12.50;61.10;;;;;;2070110;28;20121;-60
2021/03/11 04:32:07;;;;;;;4.03;3.50;;;12.50;61.10;;;;;;2071149;28;20025;-60
2021/03/11 04:33:29;;;;;;;4.30;3.90;;;12.50;60.90;;;;;;2068663;28;20551;-59
2021/03/11 04:34:50;;;;;;;4.43;3.90;;;12.50;61.00;;;;;;2070010;28;20030;-59
2021/03/11 04:36:11;;;;;;;5.00;3.60;;;12.50;61.10;;;;;;2067356;28;20034;-61
2021/03/11 04:37:33;;;;;;;4.10;3.70;;;12.60;60.90;;;;;;2068785;28;20052;-59
2021/03/11 04:38:54;;;;;;;4.07;3.67;;;12.50;60.90;;;;;;2071297;28;20446;-60
2021/03/11 04:40:15;;;;;;;4.18;3.40;;;12.60;61.00;;;;;;2067967;28;20034;-60
2021/03/11 04:41:37;;;;;;;3.95;3.60;;;12.60;60.90;;;;;;2071129;28;20038;-59
2021/03/11 04:42:58;;;;;;;4.07;3.67;;;12.60;60.90;;;;;;2071788;28;20046;-61
2021/03/11 04:44:27;;;;;;;4.68;4.10;;;12.60;60.80;;;;;;2067888;28;20037;-60
2021/03/11 04:45:48;;;;;;;3.63;3.33;;;12.60;61.00;;;;;;2071843;28;20026;-60
2021/03/11 04:47:11;;;;;;;5.13;4.38;;;12.70;60.80;;;;;;2071568;28;20124;-60
2021/03/11 04:48:34;;;;;;;4.13;3.53;;;12.60;60.90;;;;;;2069230;28;20045;-60
2021/03/11 04:49:55;;;;;;;5.30;3.80;;;12.70;60.90;;;;;;2071266;28;20057;-61
2021/03/11 04:51:17;;;;;;;4.03;3.63;;;12.70;61.00;;;;;;2069467;28;20058;-60
2021/03/11 04:52:39;;;;;;;4.15;3.75;;;12.70;60.90;;;;;;2071590;28;20022;-60
2021/03/11 04:54:00;;;;;;;4.82;3.92;;;12.70;61.10;;;;;;2071377;28;20092;-59
2021/03/11 04:55:21;;;;;;;5.15;4.10;;;12.70;61.20;;;;;;2063017;28;20049;-60
2021/03/11 04:56:42;;;;;;;4.25;3.85;;;12.70;61.10;;;;;;2068975;28;20034;-60
2021/03/11 04:58:04;;;;;;;5.30;3.95;;;12.70;61.10;;;;;;2069623;28;20112;-60
2021/03/11 04:59:26;;;;;;;4.45;3.92;;;12.70;61.00;;;;;;2068018;28;20030;-61
2021/03/11 05:00:49;;;;;;;3.97;3.67;;;12.70;61.00;;;;;;2065357;28;20061;-60
2021/03/11 05:02:10;;;;;;;3.88;3.40;;;12.80;61.10;;;;;;2069153;28;20033;-60
2021/03/11 05:03:31;;;;;;;4.25;3.85;;;12.80;61.00;;;;;;2070614;28;20030;-60
2021/03/11 05:04:53;;;;;;;5.82;4.10;;;12.80;61.40;;;;;;2070237;28;20370;-60
2021/03/11 05:06:14;;;;;;;5.35;4.63;;;12.80;61.90;;;;;;2070440;28;20568;-60
2021/03/11 05:07:35;;;;;;;6.28;4.72;;;12.80;62.20;;;;;;2068227;28;20030;-60
2021/03/11 05:08:56;;;;;;;5.10;4.60;;;12.80;62.60;;;;;;2071360;28;20414;-59
2021/03/11 05:10:17;;;;;;;5.25;4.53;;;12.80;62.40;;;;;;2067788;28;20042;-60
2021/03/11 05:11:38;;;;;;;5.00;4.50;;;12.80;63.10;;;;;;2069528;28;20026;-60
2021/03/11 05:12:59;;;;;;;7.25;4.90;;;12.80;63.70;;;;;;2071148;28;20073;-60
2021/03/11 05:14:20;;;;;;;7.80;4.90;;;12.70;64.20;;;;;;2066930;28;20029;-60
2021/03/11 05:15:41;;;;;;;5.57;4.75;;;12.70;64.00;;;;;;2068483;28;20026;-60
2021/03/11 05:17:02;;;;;;;6.63;4.88;;;12.60;63.90;;;;;;2064918;28;20038;-60
2021/03/11 05:18:23;;;;;;;6.72;4.68;;;12.60;64.70;;;;;;2069818;28;20037;-60
2021/03/11 05:19:44;;;;;;;6.28;5.30;;;12.50;64.80;;;;;;2071351;28;20104;-60
2021/03/11 05:21:07;;;;;;;6.93;5.85;;;12.50;65.40;;;;;;2065106;28;20098;-60
2021/03/11 05:22:28;;;;;;;5.07;4.47;;;12.50;65.90;;;;;;2068994;28;20038;-60
2021/03/11 05:23:50;;;;;;;5.22;4.72;;;12.40;66.00;;;;;;2069770;28;20015;-60
2021/03/11 05:25:12;;;;;;;5.60;5.00;;;12.40;66.00;;;;;;2066872;28;20093;-60
2021/03/11 05:26:32;;;;;;;6.70;5.18;;;12.30;66.50;;;;;;2063144;28;20030;-59
2021/03/11 05:27:53;;;;;;;5.95;4.90;;;12.20;67.10;;;;;;2065831;28;20121;-60
2021/03/11 05:29:14;;;;;;;4.97;4.40;;;12.20;67.30;;;;;;2065265;28;20072;-59
2021/03/11 05:30:35;;;;;;;5.45;4.32;;;12.20;67.00;;;;;;2072433;28;20113;-60
2021/03/11 05:31:56;;;;;;;6.50;4.75;;;12.20;67.20;;;;;;2070903;28;20022;-60
2021/03/11 05:33:17;;;;;;;6.22;4.65;;;12.10;67.30;;;;;;2072719;28;20038;-60
2021/03/11 05:34:38;;;;;;;6.28;4.50;;;12.10;68.20;;;;;;2072204;28;20065;-60
2021/03/11 05:35:59;;;;;;;5.07;4.40;;;12.10;68.10;;;;;;2073000;28;20042;-60
2021/03/11 05:37:19;;;;;;;5.60;4.22;;;12.00;67.80;;;;;;2069353;28;20701;-60
2021/03/11 05:38:45;;;;;;;5.30;4.80;;;12.00;68.00;;;;;;2070426;28;20061;-60
2021/03/11 05:40:08;;;;;;;4.85;4.25;;;12.00;68.30;;;;;;2066325;28;20045;-60
2021/03/11 05:41:31;;;;;;;5.80;4.47;;;12.00;68.50;;;;;;2069425;28;20022;-60
2021/03/11 05:42:56;;;;;;;5.05;4.55;;;12.00;68.80;;;;;;2072071;28;20117;-61
2021/03/11 05:44:17;;;;;;;6.18;4.65;;;12.00;68.80;;;;;;2064748;28;20041;-61
2021/03/11 05:45:39;;;;;;;4.72;4.03;;;12.00;68.70;;;;;;2069621;28;20034;-60
2021/03/11 05:47:00;;;;;;;5.72;4.00;;;12.00;68.40;;;;;;2065913;28;20181;-60
2021/03/11 05:48:22;;;;;;;5.90;4.30;;;12.00;68.60;;;;;;2071758;28;20109;-60
2021/03/11 05:49:43;;;;;;;5.25;4.25;;;12.00;68.70;;;;;;2068580;28;20117;-60
2021/03/11 05:51:04;;;;;;;6.13;5.00;;;12.00;68.70;;;;;;2066949;28;20134;-60
2021/03/11 05:52:26;;;;;;;4.43;3.97;;;12.00;68.60;;;;;;2069108;28;20030;-60
2021/03/11 05:53:47;;;;;;;5.55;4.88;;;12.00;68.50;;;;;;2072369;28;20032;-60
2021/03/11 05:55:09;;;;;;;6.30;4.47;;;12.00;68.60;;;;;;2070049;28;20143;-60
2021/03/11 05:56:30;;;;;;;4.57;4.18;;;12.00;68.70;;;;;;2073431;28;20052;-60
2021/03/11 05:57:52;;;;;;;5.38;4.32;;;12.00;68.80;;;;;;2067840;28;20582;-60
2021/03/11 05:59:15;;;;;;;4.68;4.28;;;12.10;68.80;;;;;;2068631;28;20041;-61
2021/03/11 06:00:36;;;;;;;5.13;4.60;;;12.10;68.70;;;;;;2070392;28;20120;-61
2021/03/11 06:02:03;;;;;;;5.50;4.25;;;12.10;68.60;;;;;;2073289;28;20037;-60
2021/03/11 06:03:26;;;;;;;4.68;3.95;;;12.10;68.60;;;;;;2068809;28;20057;-60
2021/03/11 06:04:49;;;;;;;5.13;4.00;;;12.10;68.40;;;;;;2070871;28;20143;-60
2021/03/11 06:06:09;;;;;;;4.80;4.30;;;12.20;68.40;;;;;;2069202;28;20031;-61
2021/03/11 06:07:31;;;;;;;5.03;4.32;;;12.20;68.40;;;;;;2067659;28;20146;-61
2021/03/11 06:08:54;;;;;;;4.57;4.18;;;12.20;68.10;;;;;;2072068;28;20037;-61
2021/03/11 06:10:16;;;;;;;5.03;4.38;;;12.30;68.00;;;;;;2067301;28;20030;-60
2021/03/11 06:11:38;;;;;;;3.90;3.55;;;12.30;67.70;;;;;;2072387;28;20026;-60
2021/03/11 06:13:00;;;;;;;4.97;4.20;;;12.30;67.80;;;;;;2072636;28;20072;-60
2021/03/11 06:14:25;;;;;;;6.30;4.53;;;12.30;67.50;;;;;;2068328;28;20052;-60
2021/03/11 06:15:49;;;;;;;5.10;4.43;;;12.40;67.50;;;;;;2071499;28;20037;-60
2021/03/11 06:17:11;;;;;;;5.07;4.53;;;12.40;67.50;;;;;;2065623;28;20038;-60
2021/03/11 06:18:33;;;;;;;5.55;4.90;;;12.40;67.30;;;;;;2071149;28;20041;-60
2021/03/11 06:19:54;;;;;;;5.38;4.50;;;12.40;67.30;;;;;;2071487;28;20045;-60
2021/03/11 06:21:16;;;;;;;4.90;4.40;;;12.40;67.10;;;;;;2071981;28;20053;-60
2021/03/11 06:22:38;;;;;;;4.63;4.22;;;12.50;67.10;;;;;;2072826;28;20065;-60
2021/03/11 06:23:58;;;;;;;4.38;3.97;;;12.50;67.00;;;;;;2071940;28;20038;-61
2021/03/11 06:25:20;;;;;;;5.55;4.50;;;12.50;67.00;;;;;;2070627;28;20041;-61
2021/03/11 06:26:41;;;;;;;5.22;4.32;;;12.60;67.00;;;;;;2065649;28;20040;-60
2021/03/11 06:28:03;;;;;;;6.10;4.50;;;12.50;66.60;;;;;;2069009;28;20201;-60
2021/03/11 06:29:40;;;;;;;4.43;4.03;;;12.60;66.70;;;;;;2070402;28;20593;-60
2021/03/11 06:31:38;;;;;;;4.82;4.32;;;12.60;66.90;;;;;;2065590;28;20054;-61
2021/03/11 06:33:00;;;;;;;5.80;5.20;;;12.70;66.80;;;;;;2070839;28;20072;-60
2021/03/11 06:34:22;;;;;;;14.10;4.70;;;12.70;66.30;;;;;;2072064;28;20113;-61
2021/03/11 06:35:43;;;;;;;6.35;4.95;;;12.70;66.20;;;;;;2069490;28;20029;-60
2021/03/11 06:37:04;;;;;;;7.15;4.90;;;12.70;66.10;;;;;;2065165;28;20096;-60
2021/03/11 06:38:28;;;;;;;6.30;5.28;;;12.70;66.10;;;;;;2068173;28;20026;-60
2021/03/11 06:39:49;;;;;;;5.40;4.47;;;12.70;66.10;;;;;;2072204;28;20018;-60
2021/03/11 06:41:10;;;;;;;4.45;3.88;;;12.80;66.10;;;;;;2065984;28;20069;-59
2021/03/11 06:42:31;;;;;;;5.20;4.47;;;12.80;66.10;;;;;;2059760;28;20026;-60
2021/03/11 06:43:53;;;;;;;5.15;4.20;;;12.80;66.00;;;;;;2067492;28;20386;-60
2021/03/11 06:45:29;;;;;;;4.78;4.28;;;12.80;65.90;;;;;;2070865;28;20431;-59
2021/03/11 06:46:59;;;;;;;4.43;4.03;;;12.80;65.80;;;;;;2068383;28;20035;-60
2021/03/11 06:48:24;;;;;;;5.45;4.07;;;12.90;65.80;;;;;;2072183;28;20041;-60
2021/03/11 06:49:59;;;;;;;4.28;3.85;;;12.90;65.60;;;;;;2060154;28;20046;-60
2021/03/11 06:51:21;;;;;;;4.47;4.07;;;12.90;65.70;;;;;;2074874;28;20121;-60
2021/03/11 06:53:03;;;;;;;4.78;4.30;;;13.00;65.60;;;;;;2061077;28;20076;-60
2021/03/11 06:54:24;;;;;;;5.50;4.30;;;13.00;65.70;;;;;;2067711;28;20026;-61
2021/03/11 06:55:45;;;;;;;5.22;4.72;;;13.00;65.50;;;;;;2071360;28;20116;-61
2021/03/11 06:57:07;;;;;;;7.45;4.47;;;13.00;65.40;;;;;;2073718;28;20030;-61
2021/03/11 06:58:28;;;;;;;5.85;4.65;;;13.00;65.30;;;;;;2062110;28;20030;-60
2021/03/11 06:59:49;;;;;;;5.60;4.85;;;13.10;65.50;;;;;;2069949;28;20022;-60
2021/03/11 07:01:10;;;;;;;6.00;5.20;;;13.10;65.40;;;;;;2069736;28;21102;-59
2021/03/11 07:02:35;;;;;;;4.80;4.40;;;13.10;65.40;;;;;;2071178;28;20065;-60
2021/03/11 07:04:01;;;;;;;5.82;4.90;;;13.10;65.40;;;;;;2071525;28;20509;-60
2021/03/11 07:05:24;;;;;;;5.50;4.35;;;13.10;65.60;;;;;;2069012;28;20456;-60
2021/03/11 07:06:45;;;;;;;5.95;4.38;;;13.10;65.70;;;;;;2071947;28;20053;-60
2021/03/11 07:08:18;;;;;;;5.47;4.40;;;13.20;65.90;;;;;;2065513;28;20112;-60
2021/03/11 07:09:40;;;;;;;5.80;4.75;;;13.20;65.90;;;;;;2071889;28;20645;-61